createdAt,value
2023-03-16T05:58:08.147Z,-7.65
2023-03-16T06:00:39.495Z,-7.89
2023-03-16T06:03:22.960Z,-7.68
2023-03-16T06:05:51.219Z,-7.65
2023-03-16T06:08:26.215Z,-7.64
2023-03-16T06:10:55.038Z,-7.63
2023-03-16T06:13:22.206Z,-7.61
2023-03-16T06:15:50.018Z,-7.59
2023-03-16T06:18:17.023Z,-7.61
2023-03-16T06:20:47.199Z,-7.58
2023-03-16T06:23:14.708Z,-7.55
2023-03-16T06:25:41.974Z,-7.50
2023-03-16T06:28:09.993Z,-7.49
2023-03-16T06:30:37.131Z,-7.44
2023-03-16T06:33:04.183Z,-7.43
2023-03-16T06:35:31.707Z,-7.51
2023-03-16T06:38:14.718Z,-7.35
2023-03-16T06:41:03.328Z,-7.32
2023-03-16T06:43:33.782Z,-7.72
2023-03-16T06:46:01.774Z,-7.40
2023-03-16T06:48:29.898Z,-7.56
2023-03-16T06:50:57.759Z,-7.19
2023-03-16T06:53:27.554Z,-7.15
2023-03-16T06:55:55.934Z,-7.45
2023-03-16T06:58:23.405Z,-7.06
2023-03-16T07:00:50.683Z,-7.02
2023-03-16T07:03:19.484Z,-7.14
2023-03-16T07:05:52.754Z,-6.93
2023-03-16T07:08:20.002Z,-6.88
2023-03-16T07:10:46.975Z,-6.87
2023-03-16T07:13:14.074Z,-6.80
2023-03-16T07:15:42.423Z,-6.75
2023-03-16T07:18:09.785Z,-6.71
2023-03-16T07:20:36.855Z,-6.66
2023-03-16T07:23:06.251Z,-6.61
2023-03-16T07:25:35.335Z,-6.64
2023-03-16T07:28:03.815Z,-6.53
2023-03-16T07:30:35.879Z,-6.48
2023-03-16T07:33:02.935Z,-6.43
2023-03-16T07:35:31.859Z,-6.38
2023-03-16T07:37:58.909Z,-6.32
2023-03-16T07:40:26.948Z,-6.27
2023-03-16T07:42:59.309Z,-6.29
2023-03-16T07:45:29.337Z,-6.18
2023-03-16T07:47:56.427Z,-6.12
2023-03-16T07:50:49.389Z,-6.07
2023-03-16T07:53:17.085Z,-6.05
2023-03-16T07:55:47.683Z,-5.98
2023-03-16T07:58:14.765Z,-5.92
2023-03-16T08:00:43.270Z,-5.88
2023-03-16T08:03:10.450Z,-6.18
2023-03-16T08:05:38.296Z,-5.77
2023-03-16T08:08:11.071Z,-5.72
2023-03-16T08:10:39.084Z,-5.73
2023-03-16T08:13:11.554Z,-5.61
2023-03-16T08:15:42.484Z,-5.54
2023-03-16T08:18:19.336Z,-5.49
2023-03-16T08:20:46.748Z,-5.42
2023-03-16T08:23:15.575Z,-5.36
2023-03-16T08:25:43.213Z,-5.30
2023-03-16T08:28:15.791Z,-5.24
2023-03-16T08:30:51.691Z,-5.19
2023-03-16T08:33:57.629Z,-5.11
2023-03-16T08:36:28.590Z,-5.05
2023-03-16T08:39:06.972Z,-5.18
2023-03-16T08:41:40.955Z,-4.93
2023-03-16T08:44:16.384Z,-4.86
2023-03-16T08:46:44.959Z,-4.79
2023-03-16T08:49:13.990Z,-4.74
2023-03-16T08:51:44.799Z,-4.70
2023-03-16T08:54:12.466Z,-4.73
2023-03-16T08:56:39.384Z,-4.58
2023-03-16T08:59:07.796Z,-4.51
2023-03-16T09:01:36.028Z,-4.44
2023-03-16T09:04:03.479Z,-4.39
2023-03-16T09:06:30.593Z,-4.32
2023-03-16T09:08:57.659Z,-4.26
2023-03-16T09:11:28.833Z,-4.19
2023-03-16T09:13:55.837Z,-4.12
2023-03-16T09:16:25.880Z,-4.04
2023-03-16T09:18:53.631Z,-3.98
2023-03-16T09:21:20.719Z,-3.89
2023-03-16T09:23:47.780Z,-3.94
2023-03-16T09:26:15.244Z,-3.72
2023-03-16T09:28:42.694Z,-3.63
2023-03-16T09:31:15.661Z,-3.53
2023-03-16T09:33:42.955Z,-3.48
2023-03-16T09:36:11.913Z,-3.35
2023-03-16T09:38:39.506Z,-3.24
2023-03-16T09:41:42.158Z,-3.12
2023-03-16T09:44:37.365Z,-2.99
2023-03-16T09:47:05.424Z,-2.83
2023-03-16T09:49:38.014Z,-2.75
2023-03-16T09:52:08.997Z,-2.63
2023-03-16T09:55:00.554Z,-2.44
2023-03-16T09:57:29.403Z,-2.32
2023-03-16T10:00:14.239Z,-2.13
2023-03-16T10:02:56.339Z,-1.99
2023-03-16T10:05:24.490Z,-1.84
2023-03-16T10:08:09.226Z,-1.79
2023-03-16T10:10:42.164Z,-1.54
2023-03-16T10:13:17.796Z,-1.38
2023-03-16T10:15:47.001Z,-1.45
2023-03-16T10:18:23.697Z,-1.08
2023-03-16T10:20:58.886Z,-0.93
2023-03-16T10:23:26.531Z,-0.79
2023-03-16T10:25:55.177Z,-0.66
2023-03-16T10:28:24.794Z,-0.60
2023-03-16T10:30:54.693Z,-0.50
2023-03-16T10:33:31.526Z,-0.21
2023-03-16T10:36:14.006Z,-0.05
2023-03-16T10:38:41.084Z,0.10
2023-03-16T10:41:20.686Z,0.25
2023-03-16T10:43:57.836Z,0.37
2023-03-16T10:46:27.846Z,0.56
2023-03-16T10:49:01.273Z,0.70
2023-03-16T10:51:31.558Z,0.83
2023-03-16T10:54:11.989Z,0.99
2023-03-16T10:56:40.370Z,1.12
2023-03-16T10:59:34.559Z,1.21
2023-03-16T11:02:20.931Z,1.38
2023-03-16T11:04:48.216Z,1.47
2023-03-16T11:07:20.967Z,1.57
2023-03-16T11:09:48.789Z,1.65
2023-03-16T11:12:30.304Z,1.74
2023-03-16T11:15:23.762Z,1.82
2023-03-16T11:17:53.641Z,1.90
2023-03-16T11:20:28.724Z,1.97
2023-03-16T11:22:56.358Z,2.04
2023-03-16T11:25:47.865Z,2.11
2023-03-16T11:28:32.243Z,2.18
2023-03-16T11:31:08.562Z,2.26
2023-03-16T11:33:35.675Z,2.27
2023-03-16T11:36:40.178Z,2.36
2023-03-16T11:39:33.742Z,2.42
2023-03-16T11:42:24.181Z,2.47
2023-03-16T11:45:01.561Z,2.51
2023-03-16T11:48:07.146Z,2.54
2023-03-16T11:50:53.242Z,2.45
2023-03-16T11:53:26.527Z,2.61
2023-03-16T11:55:56.518Z,2.64
2023-03-16T11:58:51.137Z,2.64
2023-03-16T12:01:18.388Z,2.66
2023-03-16T12:03:45.962Z,2.65
2023-03-16T12:06:47.223Z,2.63
2023-03-16T12:09:23.160Z,2.61
2023-03-16T12:12:22.633Z,2.59
2023-03-16T12:15:17.290Z,2.58
2023-03-16T12:17:45.401Z,2.43
2023-03-16T12:20:21.248Z,2.36
2023-03-16T12:22:53.784Z,2.34
2023-03-16T12:25:24.894Z,2.33
2023-03-16T12:27:57.119Z,2.48
2023-03-16T12:30:46.692Z,2.47
2023-03-16T12:33:36.708Z,2.45
2023-03-16T12:36:29.887Z,2.42
2023-03-16T12:39:21.996Z,2.41
2023-03-16T12:42:23.953Z,2.35
2023-03-16T12:45:28.848Z,2.35
2023-03-16T12:48:30.729Z,2.33
2023-03-16T12:51:22.670Z,2.33
2023-03-16T12:54:12.440Z,2.30
2023-03-16T12:57:07.467Z,2.31
2023-03-16T13:00:03.379Z,2.30
2023-03-16T13:02:57.295Z,2.22
2023-03-16T13:05:56.028Z,2.29
2023-03-16T13:08:43.361Z,2.04
2023-03-16T13:11:32.071Z,2.28
2023-03-16T13:14:22.139Z,2.28
2023-03-16T13:17:08.962Z,2.28
2023-03-16T13:19:56.172Z,2.11
2023-03-16T13:22:43.069Z,2.28
2023-03-16T13:25:59.146Z,2.29
2023-03-16T13:28:53.381Z,2.30
2023-03-16T13:31:48.763Z,2.31
2023-03-16T13:34:41.707Z,2.32
2023-03-16T13:37:37.438Z,2.32
2023-03-16T13:40:38.113Z,2.28
2023-03-16T13:43:25.184Z,2.24
2023-03-16T13:46:12.207Z,2.34
2023-03-16T13:48:59.182Z,2.36
2023-03-16T13:51:46.508Z,2.26
2023-03-16T13:54:41.884Z,2.38
2023-03-16T13:57:32.601Z,2.33
2023-03-16T14:00:37.993Z,2.40
2023-03-16T14:03:37.741Z,2.25
2023-03-16T14:06:26.860Z,2.42
2023-03-16T14:09:17.866Z,2.43
2023-03-16T14:12:04.830Z,2.38
2023-03-16T14:14:58.510Z,2.42
2023-03-16T14:17:48.208Z,2.41
2023-03-16T14:20:53.404Z,2.43
2023-03-16T14:23:57.713Z,2.47
2023-03-16T14:26:45.188Z,2.41
2023-03-16T14:29:43.562Z,2.51
2023-03-16T14:33:00.285Z,2.23
2023-03-16T14:35:53.623Z,2.52
2023-03-16T14:38:57.402Z,2.54
2023-03-16T14:41:49.910Z,2.53
2023-03-16T14:44:47.363Z,2.53
2023-03-16T14:47:43.643Z,2.53
2023-03-16T14:50:37.701Z,2.53
2023-03-16T14:53:24.618Z,2.51
2023-03-16T14:56:11.497Z,2.46
2023-03-16T14:58:58.454Z,2.49
2023-03-16T15:01:45.368Z,2.48
2023-03-16T15:04:41.004Z,2.41
2023-03-16T15:07:59.321Z,2.46
2023-03-16T15:10:52.413Z,2.45
2023-03-16T15:13:40.016Z,2.43
2023-03-16T15:16:30.520Z,2.28
2023-03-16T15:19:17.541Z,2.41
2023-03-16T15:22:04.717Z,2.35
2023-03-16T15:24:51.794Z,2.38
2023-03-16T15:27:41.955Z,2.37
2023-03-16T15:30:36.951Z,2.20
2023-03-16T15:33:23.941Z,2.32
2023-03-16T15:36:13.722Z,2.32
2023-03-16T15:39:04.777Z,2.31
2023-03-16T15:41:51.593Z,2.28
2023-03-16T15:44:38.585Z,2.27
2023-03-16T15:47:25.566Z,2.24
2023-03-16T15:50:12.654Z,2.21
2023-03-16T15:53:06.265Z,2.18
2023-03-16T15:55:58.193Z,2.19
2023-03-16T15:58:47.808Z,2.18
2023-03-16T16:01:43.490Z,2.17
2023-03-16T16:04:37.431Z,2.14
2023-03-16T16:07:29.538Z,2.12
2023-03-16T16:10:16.554Z,2.10
2023-03-16T16:13:09.145Z,2.08
2023-03-16T16:15:56.408Z,2.06
2023-03-16T16:18:48.534Z,2.03
2023-03-16T16:21:43.901Z,1.99
2023-03-16T16:24:31.167Z,1.95
2023-03-16T16:27:18.064Z,1.89
2023-03-16T16:30:05.186Z,1.87
2023-03-16T16:32:52.157Z,1.81
2023-03-16T16:35:42.085Z,1.78
2023-03-16T16:38:28.923Z,1.71
2023-03-16T16:41:17.175Z,1.67
2023-03-16T16:44:06.873Z,1.61
2023-03-16T16:46:59.349Z,1.53
2023-03-16T16:49:48.176Z,1.48
2023-03-16T16:52:39.391Z,1.42
2023-03-16T16:55:26.797Z,0.99
2023-03-16T16:58:23.890Z,1.30
2023-03-16T17:01:16.557Z,1.23
2023-03-16T17:04:03.587Z,1.16
2023-03-16T17:06:50.490Z,1.09
2023-03-16T17:09:37.533Z,1.01
2023-03-16T17:12:24.941Z,0.94
2023-03-16T17:15:12.048Z,0.84
2023-03-16T17:17:59.465Z,0.79
2023-03-16T17:20:46.403Z,0.67
2023-03-16T17:23:39.431Z,0.64
2023-03-16T17:26:47.403Z,0.55
2023-03-16T17:29:38.733Z,0.39
2023-03-16T17:32:43.836Z,0.39
2023-03-16T17:35:34.974Z,0.30
2023-03-16T17:38:22.204Z,0.20
2023-03-16T17:41:10.774Z,0.11
2023-03-16T17:43:57.736Z,0.05
2023-03-16T17:46:49.285Z,-0.03
2023-03-16T17:49:38.218Z,-0.11
2023-03-16T17:52:34.988Z,-0.21
2023-03-16T17:55:22.082Z,-0.28
2023-03-16T17:58:10.531Z,-0.42
2023-03-16T18:00:57.567Z,-0.88
2023-03-16T18:03:46.084Z,-0.54
2023-03-16T18:06:42.209Z,-0.62
2023-03-16T18:09:29.047Z,-0.70
2023-03-16T18:12:16.087Z,-0.80
2023-03-16T18:15:02.934Z,-0.87
2023-03-16T18:17:51.904Z,-0.94
2023-03-16T18:20:49.989Z,-1.02
2023-03-16T18:23:41.411Z,-1.10
2023-03-16T18:26:28.243Z,-1.17
2023-03-16T18:29:15.225Z,-1.28
2023-03-16T18:32:02.588Z,-1.42
2023-03-16T18:34:54.239Z,-1.47
2023-03-16T18:37:44.315Z,-1.49
2023-03-16T18:40:34.397Z,-1.55
2023-03-16T18:43:21.250Z,-1.76
2023-03-16T18:46:08.819Z,-1.70
2023-03-16T18:48:56.002Z,-1.77
2023-03-16T18:51:43.372Z,-1.86
2023-03-16T18:54:44.030Z,-1.95
2023-03-16T18:57:43.511Z,-2.14
2023-03-16T19:00:35.664Z,-2.17
2023-03-16T19:03:22.834Z,-2.16
2023-03-16T19:06:10.006Z,-2.24
2023-03-16T19:08:57.102Z,-2.30
2023-03-16T19:11:44.116Z,-2.38
2023-03-16T19:14:40.496Z,-2.44
2023-03-16T19:17:27.447Z,-2.56
2023-03-16T19:20:14.623Z,-2.58
2023-03-16T19:23:01.687Z,-2.65
2023-03-16T19:25:56.700Z,-2.73
2023-03-16T19:28:49.385Z,-2.79
2023-03-16T19:31:42.570Z,-2.86
2023-03-16T19:34:38.878Z,-2.92
2023-03-16T19:37:25.969Z,-3.00
2023-03-16T19:40:12.827Z,-3.06
2023-03-16T19:43:00.838Z,-3.13
2023-03-16T19:45:53.298Z,-3.31
2023-03-16T19:48:48.070Z,-3.27
2023-03-16T19:51:36.749Z,-3.69
2023-03-16T19:54:23.777Z,-3.39
2023-03-16T19:57:12.379Z,-3.44
2023-03-16T20:00:00.365Z,-3.51
2023-03-16T20:02:59.279Z,-3.58
2023-03-16T20:05:49.375Z,-3.64
2023-03-16T20:08:41.386Z,-3.70
2023-03-16T20:11:36.403Z,-3.79
2023-03-16T20:14:23.407Z,-3.81
2023-03-16T20:17:10.580Z,-3.98
2023-03-16T20:19:57.437Z,-3.93
2023-03-16T20:22:47.216Z,-4.24
2023-03-16T20:25:34.288Z,-4.05
2023-03-16T20:28:22.323Z,-4.22
2023-03-16T20:31:09.876Z,-4.38
2023-03-16T20:33:56.855Z,-4.22
2023-03-16T20:36:45.463Z,-4.35
2023-03-16T20:39:32.520Z,-4.34
2023-03-16T20:42:19.313Z,-4.41
2023-03-16T20:45:06.518Z,-4.46
2023-03-16T20:47:53.475Z,-4.51
2023-03-16T20:50:49.311Z,-4.58
2023-03-16T20:53:36.111Z,-4.63
2023-03-16T20:56:23.246Z,-5.03
2023-03-16T20:59:11.679Z,-4.77
2023-03-16T21:01:58.656Z,-4.78
2023-03-16T21:04:47.507Z,-4.84
2023-03-16T21:07:34.565Z,-4.89
2023-03-16T21:10:26.799Z,-4.93
2023-03-16T21:13:16.128Z,-4.98
2023-03-16T21:16:03.116Z,-5.03
2023-03-16T21:18:50.370Z,-5.40
2023-03-16T21:21:39.478Z,-5.16
2023-03-16T21:24:26.861Z,-5.17
2023-03-16T21:27:13.809Z,-5.22
2023-03-16T21:30:00.890Z,-5.26
2023-03-16T21:32:48.298Z,-5.53
2023-03-16T21:35:36.129Z,-5.37
2023-03-16T21:38:32.571Z,-5.40
2023-03-16T21:41:19.788Z,-5.61
2023-03-16T21:44:07.294Z,-5.64
2023-03-16T21:46:54.424Z,-5.56
2023-03-16T21:49:41.444Z,-5.61
2023-03-16T21:52:41.662Z,-5.65
2023-03-16T21:55:42.130Z,-5.72
2023-03-16T21:58:29.435Z,-5.77
2023-03-16T22:01:17.484Z,-6.03
2023-03-16T22:04:04.550Z,-5.87
2023-03-16T22:06:51.821Z,-5.92
2023-03-16T22:09:40.902Z,-5.98
2023-03-16T22:12:32.125Z,-6.33
2023-03-16T22:15:19.133Z,-6.07
2023-03-16T22:18:07.100Z,-6.14
2023-03-16T22:20:54.688Z,-6.18
2023-03-16T22:23:56.832Z,-6.25
2023-03-16T22:26:44.368Z,-6.29
2023-03-16T22:29:40.670Z,-6.60
2023-03-16T22:32:34.650Z,-6.39
2023-03-16T22:35:21.496Z,-6.44
2023-03-16T22:38:08.576Z,-6.49
2023-03-16T22:40:57.859Z,-6.55
2023-03-16T22:43:51.174Z,-6.62
2023-03-16T22:46:46.887Z,-6.66
2023-03-16T22:49:47.817Z,-6.71
2023-03-16T22:52:34.775Z,-6.92
2023-03-16T22:55:24.211Z,-6.84
2023-03-16T22:58:22.338Z,-6.90
2023-03-16T23:01:09.323Z,-6.94
2023-03-16T23:03:56.181Z,-7.03
2023-03-16T23:06:45.319Z,-7.05
2023-03-16T23:09:36.343Z,-7.11
2023-03-16T23:12:23.571Z,-7.15
2023-03-16T23:15:10.455Z,-7.20
2023-03-16T23:17:57.637Z,-7.35
2023-03-16T23:20:48.138Z,-7.30
2023-03-16T23:23:36.046Z,-7.33
2023-03-16T23:26:22.973Z,-7.52
2023-03-16T23:29:11.952Z,-7.44
2023-03-16T23:31:58.814Z,-7.50
2023-03-16T23:34:46.234Z,-7.54
2023-03-16T23:37:33.038Z,-7.60
2023-03-16T23:40:20.047Z,-7.65
2023-03-16T23:43:08.063Z,-7.69
2023-03-16T23:45:55.000Z,-7.73
2023-03-16T23:48:41.974Z,-7.78
2023-03-16T23:51:40.565Z,-8.12
2023-03-16T23:54:38.000Z,-8.18
2023-03-16T23:57:25.116Z,-7.94
